WZZ276 EDDS-EGLL
Flight info
| Callsign | WZZ276 |
|---|---|
| Flight time | N/A |
| Altitude | 24000 |
| Route | VESID4B/25 VESID Y127 TUDGA/N0441F380 Y127 BANIM L608 LIRSU DCT DENUT L608 LOGAN LOGAN2H |
| Aircraft | A20N/M-SDE2E3FGHIRWXY/LB1 |
Departure
| Time | 2026-05-07 14:43 |
|---|---|
| Airport | Stuttgart Airport (EDDS) |
Arrival
| Time | N/A |
|---|---|
| Airport | London Heathrow Airport (EGLL) |
| Time | Latitude | Longitude | Altitude | Speed | Heading |
|---|---|---|---|---|---|
| 2026-05-07 14:16 | 48.68994 | 9.19898 | 1298 ft | 0 kts | 345° |
| 2026-05-07 14:29 | 48.68994 | 9.19899 | 1298 ft | 0 kts | 345° |
| 2026-05-07 14:30 | 48.68995 | 9.19898 | 1298 ft | 0 kts | 345° |
| 2026-05-07 14:31 | 48.68997 | 9.19897 | 1298 ft | 0 kts | 345° |
| 2026-05-07 14:33 | 48.68993 | 9.19899 | 1297 ft | 3 kts | 344° |
| 2026-05-07 14:33 | 48.68981 | 9.19904 | 1297 ft | 2 kts | 344° |
| 2026-05-07 14:33 | 48.68966 | 9.19910 | 1295 ft | 2 kts | 341° |
| 2026-05-07 14:33 | 48.68953 | 9.19920 | 1294 ft | 2 kts | 321° |
| 2026-05-07 14:34 | 48.68943 | 9.19937 | 1293 ft | 2 kts | 284° |
| 2026-05-07 14:34 | 48.68942 | 9.19957 | 1292 ft | 0 kts | 246° |
| 2026-05-07 14:36 | 48.68906 | 9.19854 | 1293 ft | 15 kts | 235° |
| 2026-05-07 14:37 | 48.68827 | 9.19906 | 1287 ft | 18 kts | 118° |
| 2026-05-07 14:37 | 48.68889 | 9.20306 | 1280 ft | 24 kts | 72° |
| 2026-05-07 14:37 | 48.68933 | 9.20536 | 1275 ft | 13 kts | 74° |
| 2026-05-07 14:38 | 48.68951 | 9.20632 | 1270 ft | 13 kts | 74° |
| 2026-05-07 14:38 | 48.68979 | 9.20783 | 1271 ft | 17 kts | 74° |
| 2026-05-07 14:38 | 48.69011 | 9.20948 | 1269 ft | 14 kts | 73° |
| 2026-05-07 14:38 | 48.69042 | 9.21110 | 1264 ft | 17 kts | 73° |
| 2026-05-07 14:39 | 48.69074 | 9.21268 | 1262 ft | 16 kts | 75° |
| 2026-05-07 14:39 | 48.69109 | 9.21463 | 1262 ft | 22 kts | 73° |
| 2026-05-07 14:39 | 48.69155 | 9.21698 | 1253 ft | 25 kts | 76° |
| 2026-05-07 14:39 | 48.69203 | 9.21962 | 1246 ft | 26 kts | 73° |
| 2026-05-07 14:40 | 48.69253 | 9.22225 | 1232 ft | 25 kts | 74° |
| 2026-05-07 14:40 | 48.69289 | 9.22412 | 1230 ft | 18 kts | 73° |
| 2026-05-07 14:40 | 48.69328 | 9.22615 | 1226 ft | 21 kts | 75° |
| 2026-05-07 14:40 | 48.69370 | 9.22840 | 1225 ft | 23 kts | 74° |
| 2026-05-07 14:41 | 48.69416 | 9.23081 | 1221 ft | 23 kts | 74° |
| 2026-05-07 14:41 | 48.69465 | 9.23339 | 1212 ft | 28 kts | 76° |
| 2026-05-07 14:41 | 48.69520 | 9.23639 | 1206 ft | 30 kts | 74° |
| 2026-05-07 14:41 | 48.69576 | 9.23924 | 1200 ft | 23 kts | 73° |
| 2026-05-07 14:42 | 48.69598 | 9.24181 | 1193 ft | 27 kts | 117° |
| 2026-05-07 14:42 | 48.69537 | 9.24316 | 1190 ft | 2 kts | 165° |
| 2026-05-07 14:42 | 48.69444 | 9.24323 | 1188 ft | 18 kts | 195° |
| 2026-05-07 14:42 | 48.69368 | 9.24185 | 1191 ft | 18 kts | 252° |
| 2026-05-07 14:43 | 48.69279 | 9.23675 | 1202 ft | 90 kts | 252° |
| 2026-05-07 14:43 | 48.69024 | 9.22428 | 1239 ft | 155 kts | 252° |
| 2026-05-07 14:43 | 48.68706 | 9.20814 | 1765 ft | 169 kts | 251° |
| 2026-05-07 14:43 | 48.68188 | 9.19158 | 2424 ft | 181 kts | 244° |
| 2026-05-07 14:44 | 48.67798 | 9.17274 | 3163 ft | 195 kts | 259° |
| 2026-05-07 14:44 | 48.67538 | 9.15225 | 3959 ft | 201 kts | 259° |
| 2026-05-07 14:44 | 48.67324 | 9.13157 | 4680 ft | 210 kts | 266° |
| 2026-05-07 14:44 | 48.67478 | 9.10899 | 5376 ft | 224 kts | 283° |
| 2026-05-07 14:45 | 48.67738 | 9.08600 | 6081 ft | 234 kts | 285° |
| 2026-05-07 14:45 | 48.68377 | 9.06341 | 7114 ft | 232 kts | 298° |
| 2026-05-07 14:45 | 48.69239 | 9.04350 | 8188 ft | 228 kts | 309° |
| 2026-05-07 14:45 | 48.70467 | 9.02748 | 8877 ft | 243 kts | 334° |
| 2026-05-07 14:46 | 48.72071 | 9.01878 | 9744 ft | 246 kts | 341° |
| 2026-05-07 14:46 | 48.73709 | 9.01075 | 10642 ft | 249 kts | 341° |
| 2026-05-07 14:46 | 48.75368 | 9.00262 | 11506 ft | 252 kts | 341° |
| 2026-05-07 14:46 | 48.77050 | 8.99436 | 12338 ft | 256 kts | 341° |
| 2026-05-07 14:47 | 48.78755 | 8.98598 | 13164 ft | 259 kts | 341° |
| 2026-05-07 14:47 | 48.80480 | 8.97751 | 13959 ft | 262 kts | 341° |
| 2026-05-07 14:47 | 48.82226 | 8.96892 | 14727 ft | 266 kts | 341° |
| 2026-05-07 14:47 | 48.84001 | 8.96037 | 15477 ft | 269 kts | 343° |
| 2026-05-07 14:48 | 48.85828 | 8.95338 | 16189 ft | 273 kts | 353° |
| 2026-05-07 14:48 | 48.87736 | 8.95096 | 16907 ft | 276 kts | 355° |
| 2026-05-07 14:48 | 48.89645 | 8.94727 | 17599 ft | 278 kts | 349° |
| 2026-05-07 14:48 | 48.91538 | 8.94046 | 18265 ft | 281 kts | 343° |
| 2026-05-07 14:49 | 48.93411 | 8.93126 | 18922 ft | 284 kts | 340° |
| 2026-05-07 14:49 | 48.95277 | 8.92076 | 19565 ft | 287 kts | 339° |
| 2026-05-07 14:49 | 48.97147 | 8.90967 | 20189 ft | 290 kts | 338° |
| 2026-05-07 14:49 | 48.99032 | 8.89827 | 20774 ft | 293 kts | 338° |
| 2026-05-07 14:50 | 49.00924 | 8.88684 | 21352 ft | 297 kts | 338° |
| 2026-05-07 14:50 | 49.02861 | 8.87517 | 21892 ft | 301 kts | 338° |
| 2026-05-07 14:50 | 49.04806 | 8.86350 | 22422 ft | 304 kts | 338° |
| 2026-05-07 14:50 | 49.06796 | 8.85156 | 22969 ft | 307 kts | 338° |
| 2026-05-07 14:51 | 49.08792 | 8.83960 | 23493 ft | 310 kts | 338° |
| 2026-05-07 14:51 | 49.10825 | 8.82742 | 23866 ft | 319 kts | 338° |
| 2026-05-07 14:51 | 49.12947 | 8.81468 | 23989 ft | 336 kts | 338° |
| 2026-05-07 14:51 | 49.15214 | 8.80200 | 24002 ft | 357 kts | 345° |
| 2026-05-07 14:52 | 49.17728 | 8.79561 | 24003 ft | 377 kts | 357° |
| 2026-05-07 14:52 | 49.20407 | 8.79747 | 24004 ft | 396 kts | 5° |
| 2026-05-07 14:52 | 49.23210 | 8.80170 | 24000 ft | 412 kts | 5° |
| 2026-05-07 14:52 | 49.26085 | 8.80581 | 24000 ft | 414 kts | 5° |
| 2026-05-07 14:53 | 49.28953 | 8.80977 | 24000 ft | 413 kts | 5° |
| 2026-05-07 14:53 | 49.31815 | 8.81364 | 24000 ft | 413 kts | 5° |
| 2026-05-07 14:53 | 49.34662 | 8.81748 | 23999 ft | 413 kts | 5° |
| 2026-05-07 14:53 | 49.37500 | 8.82133 | 24000 ft | 413 kts | 5° |
| 2026-05-07 14:54 | 49.40369 | 8.82523 | 24000 ft | 414 kts | 5° |
| 2026-05-07 14:54 | 49.43233 | 8.82915 | 24000 ft | 414 kts | 5° |
| 2026-05-07 14:54 | 49.46106 | 8.83309 | 24000 ft | 415 kts | 5° |
| 2026-05-07 14:54 | 49.48982 | 8.83704 | 24000 ft | 414 kts | 5° |
| 2026-05-07 14:55 | 49.51845 | 8.84098 | 24000 ft | 414 kts | 5° |
| 2026-05-07 14:55 | 49.54725 | 8.84335 | 23999 ft | 414 kts | 356° |
| 2026-05-07 14:55 | 49.57557 | 8.83562 | 24001 ft | 413 kts | 341° |
| 2026-05-07 14:55 | 49.60154 | 8.81686 | 24000 ft | 413 kts | 326° |
| 2026-05-07 14:56 | 49.62345 | 8.78837 | 24000 ft | 413 kts | 311° |
| 2026-05-07 14:56 | 49.64186 | 8.75435 | 24000 ft | 411 kts | 308° |
| 2026-05-07 14:56 | 49.65972 | 8.71988 | 24000 ft | 412 kts | 308° |
| 2026-05-07 14:56 | 49.67773 | 8.68531 | 24000 ft | 413 kts | 309° |
| 2026-05-07 14:57 | 49.69551 | 8.65166 | 23999 ft | 411 kts | 309° |
| 2026-05-07 14:57 | 49.71377 | 8.61758 | 24000 ft | 411 kts | 311° |
| 2026-05-07 14:57 | 49.73389 | 8.58608 | 24001 ft | 411 kts | 317° |
| 2026-05-07 14:57 | 49.75483 | 8.55603 | 24000 ft | 411 kts | 316° |
| 2026-05-07 14:58 | 49.77575 | 8.52570 | 24000 ft | 411 kts | 316° |
| 2026-05-07 14:58 | 49.79657 | 8.49540 | 24000 ft | 411 kts | 316° |
| 2026-05-07 14:58 | 49.81737 | 8.46508 | 24000 ft | 411 kts | 316° |
| 2026-05-07 14:58 | 49.83678 | 8.43260 | 24000 ft | 411 kts | 307° |
| 2026-05-07 14:59 | 49.84740 | 8.40831 | 24000 ft | 411 kts | 300° |
| 2026-05-07 14:59 | 49.85969 | 8.36850 | 24000 ft | 411 kts | 290° |
| 2026-05-07 14:59 | 49.86857 | 8.32627 | 24000 ft | 411 kts | 288° |
| 2026-05-07 14:59 | 49.87741 | 8.28403 | 24000 ft | 411 kts | 288° |
| 2026-05-07 15:00 | 49.88628 | 8.24198 | 24000 ft | 411 kts | 288° |
| 2026-05-07 15:00 | 49.89520 | 8.19958 | 24000 ft | 411 kts | 288° |
| 2026-05-07 15:00 | 49.90392 | 8.15801 | 23999 ft | 411 kts | 288° |
| 2026-05-07 15:00 | 49.91273 | 8.11583 | 24000 ft | 411 kts | 288° |
| 2026-05-07 15:01 | 49.92151 | 8.07366 | 24000 ft | 411 kts | 288° |
| 2026-05-07 15:01 | 49.93029 | 8.03138 | 24000 ft | 411 kts | 288° |
| 2026-05-07 15:01 | 49.93906 | 7.98900 | 24000 ft | 411 kts | 287° |
| 2026-05-07 15:01 | 49.94606 | 7.94599 | 24000 ft | 411 kts | 280° |
| 2026-05-07 15:02 | 49.94989 | 7.90206 | 24000 ft | 410 kts | 276° |
| 2026-05-07 15:02 | 49.95332 | 7.85797 | 24000 ft | 412 kts | 277° |
| 2026-05-07 15:02 | 49.95685 | 7.81386 | 24000 ft | 412 kts | 277° |
| 2026-05-07 15:02 | 49.96040 | 7.76976 | 24000 ft | 412 kts | 277° |
| 2026-05-07 15:03 | 49.96393 | 7.72561 | 23999 ft | 412 kts | 277° |
| 2026-05-07 15:03 | 49.96743 | 7.68135 | 24000 ft | 413 kts | 277° |
| 2026-05-07 15:03 | 49.97091 | 7.63697 | 24000 ft | 413 kts | 277° |
| 2026-05-07 15:03 | 49.97433 | 7.59324 | 24000 ft | 413 kts | 277° |
| 2026-05-07 15:04 | 49.97776 | 7.54901 | 24000 ft | 412 kts | 277° |
| 2026-05-07 15:04 | 49.98117 | 7.50480 | 24000 ft | 412 kts | 277° |
| 2026-05-07 15:04 | 49.98457 | 7.46063 | 24000 ft | 412 kts | 277° |
| 2026-05-07 15:04 | 49.98795 | 7.41642 | 24000 ft | 413 kts | 277° |
| 2026-05-07 15:05 | 49.99132 | 7.37217 | 24000 ft | 413 kts | 276° |
| 2026-05-07 15:05 | 49.99467 | 7.32784 | 24000 ft | 412 kts | 276° |
| 2026-05-07 15:05 | 49.99800 | 7.28364 | 24000 ft | 412 kts | 276° |
| 2026-05-07 15:05 | 50.00132 | 7.23930 | 23999 ft | 412 kts | 276° |
| 2026-05-07 15:06 | 50.00459 | 7.19551 | 24000 ft | 412 kts | 276° |
| 2026-05-07 15:06 | 50.00787 | 7.15129 | 24000 ft | 412 kts | 276° |
| 2026-05-07 15:06 | 50.01114 | 7.10698 | 24000 ft | 411 kts | 276° |
| 2026-05-07 15:06 | 50.01438 | 7.06279 | 24000 ft | 412 kts | 276° |